Time;durP1;ratioP1;P1;durP2;ratioP2;P2;SDS_P1;SDS_P2;PMS_P1;PMS_P2;Temp;Humidity;BMP_temperature;BMP_pressure;BME280_temperature;BME280_humidity;BME280_pressure;Samples;Min_cycle;Max_cycle;Signal;HPM_P1;HPM_P2
2023/06/18 00:00:05;;;;;;;7.10;6.40;;;16.20;1.00;;;;;;5015134;28;20185;-69
2023/06/18 00:02:30;;;;;;;6.97;6.27;;;16.20;1.00;;;;;;5015053;28;20284;-68
2023/06/18 00:04:56;;;;;;;7.47;6.77;;;16.10;1.00;;;;;;5015015;28;20450;-68
2023/06/18 00:07:21;;;;;;;7.17;6.50;;;16.10;1.00;;;;;;5014751;28;20269;-72
2023/06/18 00:09:47;;;;;;;7.80;7.10;;;16.10;1.00;;;;;;5014862;28;20222;-70
2023/06/18 00:12:13;;;;;;;6.83;6.17;;;16.00;1.00;;;;;;5014526;28;20570;-70
2023/06/18 00:14:39;;;;;;;6.77;6.17;;;16.00;1.00;;;;;;5014726;28;20720;-71
2023/06/18 00:17:04;;;;;;;8.80;7.03;;;16.00;1.00;;;;;;5014740;28;20496;-70
2023/06/18 00:19:30;;;;;;;7.20;6.50;;;16.00;1.00;;;;;;5014817;28;20187;-70
2023/06/18 00:21:56;;;;;;;7.60;6.90;;;16.00;1.00;;;;;;5013086;28;20235;-70
2023/06/18 00:24:22;;;;;;;6.37;5.77;;;16.00;1.00;;;;;;5014698;28;20179;-70
2023/06/18 00:26:47;;;;;;;7.03;6.43;;;15.90;1.00;;;;;;5014630;28;20932;-70
2023/06/18 00:29:13;;;;;;;16.73;7.10;;;15.90;1.00;;;;;;5014375;28;20761;-70
2023/06/18 00:31:38;;;;;;;7.77;7.07;;;15.80;1.00;;;;;;5014401;28;20290;-70
2023/06/18 00:34:07;;;;;;;7.23;6.27;;;15.80;1.00;;;;;;5014265;28;20178;-70
2023/06/18 00:36:33;;;;;;;6.23;5.57;;;15.70;1.00;;;;;;5013993;28;20180;-70
2023/06/18 00:39:02;;;;;;;7.40;5.30;;;15.60;1.00;;;;;;5014301;28;20409;-70
2023/06/18 00:41:29;;;;;;;6.67;5.27;;;15.60;1.00;;;;;;5013922;28;20484;-70
2023/06/18 00:43:57;;;;;;;7.10;6.40;;;15.50;1.00;;;;;;5014187;28;20686;-70
2023/06/18 00:46:26;;;;;;;10.13;5.80;;;15.50;1.00;;;;;;5014228;28;20424;-70
2023/06/18 00:48:53;;;;;;;6.90;6.20;;;15.40;1.00;;;;;;5013996;28;20973;-70
2023/06/18 00:51:21;;;;;;;8.67;5.80;;;15.40;1.00;;;;;;5013971;28;20442;-70
2023/06/18 00:53:46;;;;;;;9.97;6.57;;;15.30;1.00;;;;;;5013912;28;20423;-71
2023/06/18 00:56:12;;;;;;;7.83;6.23;;;15.30;1.00;;;;;;5014080;28;20421;-70
2023/06/18 00:58:38;;;;;;;8.30;7.40;;;15.20;1.00;;;;;;5014260;28;20189;-70
2023/06/18 01:01:10;;;;;;;9.90;6.90;;;15.10;1.00;;;;;;5013747;28;20443;-70
2023/06/18 01:03:35;;;;;;;10.27;7.63;;;15.20;1.00;;;;;;5013766;28;20559;-71
2023/06/18 01:06:02;;;;;;;11.07;6.40;;;15.10;1.00;;;;;;5012415;28;20428;-71
2023/06/18 01:08:32;;;;;;;7.00;6.30;;;15.00;1.00;;;;;;5013499;28;20451;-71
2023/06/18 01:11:03;;;;;;;8.83;7.20;;;15.00;1.00;;;;;;5013685;28;20854;-71
2023/06/18 01:13:36;;;;;;;7.60;6.77;;;14.90;1.00;;;;;;5013334;28;20412;-71
2023/06/18 01:16:05;;;;;;;7.23;6.43;;;14.90;1.00;;;;;;5013522;28;20419;-71
2023/06/18 01:18:39;;;;;;;8.03;7.17;;;14.80;1.00;;;;;;5013461;28;20419;-71
2023/06/18 01:21:09;;;;;;;7.07;6.37;;;14.80;1.00;;;;;;5011875;28;20913;-71
2023/06/18 01:24:04;;;;;;;6.20;5.70;;;14.80;1.00;;;;;;5013140;28;20419;-71
2023/06/18 01:26:31;;;;;;;8.10;7.17;;;14.70;1.00;;;;;;5013463;28;20424;-71
2023/06/18 01:29:01;;;;;;;6.77;6.10;;;14.70;1.00;;;;;;5013436;28;20455;-71
2023/06/18 01:31:34;;;;;;;6.83;6.13;;;14.60;1.00;;;;;;5013045;28;20836;-70
2023/06/18 01:34:01;;;;;;;7.30;6.43;;;14.60;1.00;;;;;;5013410;28;20875;-71
2023/06/18 01:36:34;;;;;;;6.57;5.67;;;14.60;1.00;;;;;;5013285;28;20419;-70
2023/06/18 01:39:09;;;;;;;6.67;5.83;;;14.60;1.00;;;;;;5013243;28;20820;-72
2023/06/18 01:41:36;;;;;;;6.93;6.20;;;14.60;1.00;;;;;;5012691;28;20846;-70
2023/06/18 01:44:07;;;;;;;6.80;6.20;;;14.60;1.00;;;;;;5013145;28;20423;-71
2023/06/18 01:46:33;;;;;;;6.57;5.43;;;14.60;1.30;;;;;;5013080;28;20416;-70
2023/06/18 01:49:07;;;;;;;6.17;5.57;;;14.60;1.70;;;;;;5013043;28;20459;-71
2023/06/18 01:51:36;;;;;;;6.33;5.67;;;14.40;1.70;;;;;;5012761;28;20967;-69
2023/06/18 01:54:03;;;;;;;7.33;6.63;;;14.40;1.70;;;;;;5012925;28;20407;-70
2023/06/18 01:56:29;;;;;;;7.23;6.43;;;14.40;2.10;;;;;;5012801;28;20774;-69
2023/06/18 01:58:55;;;;;;;6.17;5.20;;;14.40;2.40;;;;;;5012749;28;20415;-69
2023/06/18 02:01:21;;;;;;;9.23;6.90;;;14.40;1.90;;;;;;5012792;28;20960;-70
2023/06/18 02:03:47;;;;;;;7.37;6.50;;;14.30;2.00;;;;;;5012609;28;20427;-71
2023/06/18 02:06:13;;;;;;;9.20;6.43;;;14.40;2.40;;;;;;5012664;28;20180;-70
2023/06/18 02:08:39;;;;;;;8.53;6.03;;;14.30;2.20;;;;;;5012583;28;20525;-70
2023/06/18 02:11:05;;;;;;;6.00;5.40;;;14.30;2.30;;;;;;5012381;28;20434;-70
2023/06/18 02:13:30;;;;;;;7.67;6.73;;;14.30;2.30;;;;;;5012266;28;20176;-70
2023/06/18 02:15:56;;;;;;;7.50;6.73;;;14.30;2.40;;;;;;5012436;28;20719;-70
2023/06/18 02:18:22;;;;;;;8.80;8.00;;;14.20;2.70;;;;;;5012458;28;20192;-70
2023/06/18 02:20:47;;;;;;;8.83;6.70;;;14.20;3.60;;;;;;5012393;28;20670;-70
2023/06/18 02:23:13;;;;;;;6.67;6.07;;;14.10;2.80;;;;;;5012139;28;20251;-70
2023/06/18 02:25:39;;;;;;;6.33;5.67;;;14.10;2.90;;;;;;5012312;28;20171;-70
2023/06/18 02:28:06;;;;;;;6.87;6.23;;;14.10;3.00;;;;;;5012214;28;20176;-70
2023/06/18 02:30:33;;;;;;;8.90;7.90;;;14.00;3.30;;;;;;5012116;28;20438;-70
2023/06/18 02:33:01;;;;;;;8.00;6.00;;;14.00;3.50;;;;;;5012028;28;20774;-70
2023/06/18 02:35:28;;;;;;;8.17;7.07;;;14.00;3.70;;;;;;5012025;28;20417;-69
2023/06/18 02:37:54;;;;;;;5.63;5.10;;;13.90;3.70;;;;;;5012021;28;20427;-70
2023/06/18 02:40:20;;;;;;;7.10;6.40;;;13.80;3.80;;;;;;5011691;28;20789;-69
2023/06/18 02:42:47;;;;;;;8.87;6.00;;;13.80;3.90;;;;;;5010497;28;20480;-70
2023/06/18 02:45:21;;;;;;;7.37;5.73;;;13.70;4.20;;;;;;5012183;28;20429;-70
2023/06/18 02:47:49;;;;;;;6.93;5.10;;;13.60;4.90;;;;;;5011901;28;20466;-70
2023/06/18 02:50:15;;;;;;;7.23;6.30;;;13.50;5.40;;;;;;5011902;28;20570;-70
2023/06/18 02:52:42;;;;;;;7.47;6.40;;;13.50;5.10;;;;;;5011583;28;20414;-70
2023/06/18 02:55:09;;;;;;;7.70;6.57;;;13.50;5.40;;;;;;5011932;28;20911;-70
2023/06/18 02:57:35;;;;;;;5.83;5.33;;;13.50;5.40;;;;;;5011421;28;20829;-70
2023/06/18 03:00:04;;;;;;;9.37;7.93;;;13.50;5.50;;;;;;5011726;28;20434;-70
2023/06/18 03:02:30;;;;;;;6.07;5.47;;;13.50;5.60;;;;;;5011261;28;20435;-71
2023/06/18 03:04:56;;;;;;;7.70;6.50;;;13.50;5.80;;;;;;5011698;28;20468;-71
2023/06/18 03:07:22;;;;;;;7.60;5.80;;;13.50;6.20;;;;;;5012094;28;20430;-70
2023/06/18 03:09:47;;;;;;;8.47;6.77;;;13.40;6.00;;;;;;5012076;28;20628;-71
2023/06/18 03:12:13;;;;;;;14.30;7.40;;;13.40;6.00;;;;;;5011386;28;20790;-69
2023/06/18 03:14:38;;;;;;;9.37;6.80;;;13.40;6.00;;;;;;5011663;28;20268;-70
2023/06/18 03:17:04;;;;;;;8.57;6.47;;;13.40;6.00;;;;;;5011452;28;20180;-70
2023/06/18 03:19:30;;;;;;;7.60;6.17;;;13.40;6.10;;;;;;5011377;28;20187;-70
2023/06/18 03:21:55;;;;;;;8.60;7.00;;;13.40;6.40;;;;;;5011055;28;20212;-70
2023/06/18 03:24:21;;;;;;;7.20;6.50;;;13.50;6.40;;;;;;5011388;28;20198;-71
2023/06/18 03:26:46;;;;;;;8.33;7.53;;;13.50;6.20;;;;;;5011403;28;20182;-72
2023/06/18 03:29:12;;;;;;;7.90;7.10;;;13.50;6.20;;;;;;5011305;28;20632;-70
2023/06/18 03:31:39;;;;;;;7.90;6.50;;;13.50;6.60;;;;;;5011025;28;20203;-70
2023/06/18 03:34:07;;;;;;;6.67;5.80;;;13.50;6.50;;;;;;5011507;28;20175;-71
2023/06/18 03:36:41;;;;;;;7.40;6.37;;;13.50;6.40;;;;;;5011215;28;20414;-71
2023/06/18 03:39:09;;;;;;;10.10;6.83;;;13.50;6.30;;;;;;5011500;28;20783;-71
2023/06/18 03:41:35;;;;;;;8.30;7.30;;;13.50;6.30;;;;;;5010952;28;20456;-71
2023/06/18 03:44:01;;;;;;;8.10;7.17;;;13.60;6.60;;;;;;5011584;28;20440;-71
2023/06/18 03:46:27;;;;;;;8.13;6.43;;;13.60;6.50;;;;;;5011491;28;20422;-70
2023/06/18 03:48:53;;;;;;;9.17;6.43;;;13.70;6.40;;;;;;5011400;28;20549;-70
2023/06/18 03:51:18;;;;;;;8.27;6.77;;;13.70;6.50;;;;;;5011226;28;20249;-70
2023/06/18 03:53:44;;;;;;;7.13;6.43;;;13.80;6.10;;;;;;5011040;28;20277;-70
2023/06/18 03:56:09;;;;;;;9.10;7.20;;;13.80;6.00;;;;;;5011263;28;20262;-70
2023/06/18 03:58:35;;;;;;;10.43;8.27;;;13.90;5.90;;;;;;5011113;28;20195;-70
2023/06/18 04:01:00;;;;;;;7.93;7.13;;;14.00;5.70;;;;;;5011089;28;20626;-70
2023/06/18 04:03:27;;;;;;;7.23;6.53;;;14.20;5.60;;;;;;5010369;28;20195;-71
2023/06/18 04:05:52;;;;;;;9.10;7.93;;;14.30;5.10;;;;;;5011133;28;20212;-70
2023/06/18 04:08:18;;;;;;;10.43;6.70;;;14.50;4.00;;;;;;5009758;28;20500;-71
2023/06/18 04:10:45;;;;;;;7.20;6.10;;;14.60;3.90;;;;;;5012803;28;20669;-71
2023/06/18 04:13:14;;;;;;;6.87;5.73;;;14.80;4.00;;;;;;5014527;28;20180;-70
2023/06/18 04:15:40;;;;;;;7.20;6.20;;;14.90;4.10;;;;;;5014695;28;20438;-71
2023/06/18 04:18:06;;;;;;;7.07;6.33;;;15.00;4.10;;;;;;5014722;28;20411;-71
2023/06/18 04:20:31;;;;;;;6.87;6.17;;;15.20;4.30;;;;;;5015067;28;20211;-70
2023/06/18 04:22:57;;;;;;;7.10;6.40;;;15.30;3.90;;;;;;5014537;28;20415;-71
2023/06/18 04:25:22;;;;;;;7.93;7.13;;;15.40;3.50;;;;;;5014651;28;20192;-71
2023/06/18 04:27:48;;;;;;;8.63;7.07;;;15.50;3.10;;;;;;5014663;28;20187;-71
2023/06/18 04:30:14;;;;;;;9.57;6.80;;;15.50;3.30;;;;;;5014233;28;20213;-70
2023/06/18 04:32:39;;;;;;;9.73;7.87;;;15.60;3.10;;;;;;5014252;28;20178;-71
2023/06/18 04:35:05;;;;;;;11.50;8.23;;;15.70;2.40;;;;;;5014240;28;20239;-70
2023/06/18 04:37:31;;;;;;;7.40;6.70;;;15.80;2.00;;;;;;5014335;28;20179;-71
2023/06/18 04:39:57;;;;;;;8.13;7.40;;;15.90;1.90;;;;;;5014300;28;20532;-70
2023/06/18 04:42:22;;;;;;;9.37;8.10;;;16.10;1.30;;;;;;5014256;28;20252;-70
2023/06/18 04:44:48;;;;;;;8.27;7.40;;;16.20;1.00;;;;;;5014176;28;20178;-71
2023/06/18 04:47:13;;;;;;;7.17;6.47;;;16.40;1.00;;;;;;5014298;28;20183;-71
2023/06/18 04:49:39;;;;;;;9.10;6.77;;;16.50;1.00;;;;;;5014112;28;20223;-71
2023/06/18 04:52:05;;;;;;;8.60;7.80;;;16.60;1.00;;;;;;5013887;28;20203;-71
2023/06/18 04:54:30;;;;;;;8.50;7.63;;;16.70;1.00;;;;;;5014241;28;20187;-71
2023/06/18 04:56:59;;;;;;;7.53;6.73;;;16.70;1.00;;;;;;5014161;28;20422;-71
2023/06/18 04:59:25;;;;;;;9.10;7.47;;;16.80;1.00;;;;;;5014023;28;20645;-71
2023/06/18 05:01:51;;;;;;;8.87;8.07;;;16.80;1.00;;;;;;5013593;28;20447;-71
2023/06/18 05:04:17;;;;;;;8.60;7.37;;;16.80;1.00;;;;;;5013929;28;20180;-71
2023/06/18 05:06:42;;;;;;;7.43;6.73;;;16.90;1.00;;;;;;5013942;28;20421;-71
2023/06/18 05:09:08;;;;;;;7.63;6.83;;;16.90;1.00;;;;;;5013638;28;20207;-71
2023/06/18 05:11:34;;;;;;;9.57;7.90;;;16.80;1.00;;;;;;5013444;28;20257;-71
2023/06/18 05:14:00;;;;;;;9.33;7.00;;;16.90;1.00;;;;;;5013489;28;20406;-71
2023/06/18 05:16:26;;;;;;;7.70;6.97;;;16.90;1.00;;;;;;5014002;28;20174;-72
2023/06/18 05:18:52;;;;;;;6.87;5.90;;;17.00;1.00;;;;;;5013632;28;20825;-69
2023/06/18 05:21:18;;;;;;;7.40;6.70;;;17.10;1.00;;;;;;5013399;28;20192;-71
2023/06/18 05:23:43;;;;;;;9.03;7.63;;;17.20;1.00;;;;;;5013305;28;20194;-71
2023/06/18 05:26:09;;;;;;;7.70;6.27;;;17.40;1.00;;;;;;5013594;28;20179;-71
2023/06/18 05:28:34;;;;;;;10.50;6.93;;;17.60;1.00;;;;;;5013549;28;20207;-71
2023/06/18 05:31:00;;;;;;;9.10;8.23;;;17.70;1.00;;;;;;5013438;28;20263;-71
2023/06/18 05:33:25;;;;;;;8.87;7.97;;;17.80;1.00;;;;;;5013564;28;20267;-71
2023/06/18 05:35:51;;;;;;;8.70;7.77;;;18.00;1.00;;;;;;5013504;28;20187;-72
2023/06/18 05:38:16;;;;;;;8.30;7.50;;;18.20;1.00;;;;;;5013731;28;20741;-71
2023/06/18 05:40:42;;;;;;;9.80;8.70;;;18.60;1.00;;;;;;5013233;28;20211;-72
2023/06/18 05:43:07;;;;;;;7.03;6.43;;;19.50;1.00;;;;;;5013154;28;20262;-71
2023/06/18 05:45:33;;;;;;;8.53;7.73;;;21.50;1.00;;;;;;5013302;28;20211;-72
2023/06/18 05:47:58;;;;;;;8.13;7.43;;;24.10;1.00;;;;;;5013295;28;20199;-72
2023/06/18 05:50:24;;;;;;;7.20;6.60;;;26.40;1.00;;;;;;5013123;28;20219;-72
2023/06/18 05:52:49;;;;;;;7.73;6.70;;;28.40;1.00;;;;;;5012937;28;20223;-72
2023/06/18 05:55:15;;;;;;;8.50;7.80;;;30.00;1.00;;;;;;5013340;28;20176;-73
2023/06/18 05:57:42;;;;;;;9.47;8.77;;;31.40;1.00;;;;;;5014026;28;20180;-72
2023/06/18 06:00:08;;;;;;;8.60;7.90;;;32.70;1.00;;;;;;5013696;28;20661;-72
2023/06/18 06:02:34;;;;;;;9.47;8.77;;;33.60;1.00;;;;;;5013630;28;20450;-72
2023/06/18 06:04:59;;;;;;;7.27;6.70;;;34.10;1.00;;;;;;5013975;28;20411;-73
2023/06/18 06:07:25;;;;;;;7.67;7.17;;;34.60;1.00;;;;;;5013790;28;20549;-72
2023/06/18 06:09:50;;;;;;;8.57;7.97;;;35.00;1.00;;;;;;5013640;28;20211;-72
2023/06/18 06:12:16;;;;;;;7.50;6.80;;;35.40;1.00;;;;;;5002403;28;20227;-73
2023/06/18 06:14:42;;;;;;;8.93;8.23;;;35.40;1.00;;;;;;4993605;28;20693;-70
2023/06/18 06:17:07;;;;;;;7.97;7.30;;;35.20;1.00;;;;;;4993494;28;20423;-71
2023/06/18 06:19:33;;;;;;;7.63;7.03;;;35.60;1.00;;;;;;4992199;28;20208;-71
2023/06/18 06:21:59;;;;;;;8.63;8.00;;;36.40;1.00;;;;;;4993420;28;20200;-70
2023/06/18 06:24:24;;;;;;;8.00;7.40;;;36.40;1.00;;;;;;4993349;28;20173;-70
2023/06/18 06:26:50;;;;;;;9.10;8.47;;;36.60;1.00;;;;;;4993331;28;20169;-70
2023/06/18 06:29:16;;;;;;;9.00;8.20;;;36.70;1.00;;;;;;4993227;28;20205;-70
2023/06/18 06:31:41;;;;;;;8.33;7.70;;;36.10;1.00;;;;;;4993123;28;20693;-70
2023/06/18 06:34:07;;;;;;;8.90;8.20;;;35.90;1.00;;;;;;5000617;28;20250;-71
2023/06/18 06:36:33;;;;;;;9.50;8.77;;;36.40;1.00;;;;;;5001264;28;20180;-71
2023/06/18 06:38:58;;;;;;;10.13;9.20;;;36.50;1.00;;;;;;5008211;28;20184;-71
2023/06/18 06:41:24;;;;;;;8.70;8.00;;;36.10;1.00;;;;;;5002682;28;20655;-71
2023/06/18 06:43:50;;;;;;;9.13;8.40;;;36.20;1.00;;;;;;4992894;28;20207;-70
2023/06/18 06:46:16;;;;;;;8.13;7.53;;;35.20;1.00;;;;;;5007994;28;20705;-71
2023/06/18 06:48:41;;;;;;;8.23;7.43;;;35.80;1.00;;;;;;4992872;28;20459;-71
2023/06/18 06:51:07;;;;;;;8.80;8.10;;;36.10;1.00;;;;;;4992858;28;20188;-70
2023/06/18 06:53:32;;;;;;;10.00;9.20;;;36.30;1.00;;;;;;5002377;28;20188;-73
2023/06/18 06:56:01;;;;;;;9.57;8.77;;;37.20;1.00;;;;;;4992836;28;20200;-75
2023/06/18 06:58:27;;;;;;;9.53;8.63;;;37.80;1.00;;;;;;4992807;28;20181;-74
2023/06/18 07:00:53;;;;;;;8.97;8.37;;;37.80;1.00;;;;;;4992845;28;20944;-74
2023/06/18 07:03:19;;;;;;;11.20;9.90;;;38.10;1.00;;;;;;4992820;28;20469;-74
2023/06/18 07:05:45;;;;;;;9.70;8.90;;;38.50;1.00;;;;;;4992552;28;20222;-73
2023/06/18 07:08:10;;;;;;;9.83;8.50;;;37.70;1.00;;;;;;4992620;28;20423;-74
2023/06/18 07:10:36;;;;;;;8.70;7.90;;;38.40;1.00;;;;;;4992616;28;20534;-74
2023/06/18 07:13:05;;;;;;;9.40;8.70;;;38.10;1.00;;;;;;4992446;28;20368;-73
2023/06/18 07:15:31;;;;;;;8.10;7.53;;;38.70;1.00;;;;;;4992394;28;20262;-74
2023/06/18 07:17:59;;;;;;;9.03;8.40;;;37.60;1.00;;;;;;4992562;28;20424;-73
2023/06/18 07:20:24;;;;;;;7.93;7.33;;;37.10;1.00;;;;;;4992388;28;20490;-74
2023/06/18 07:22:50;;;;;;;7.70;7.10;;;38.20;1.00;;;;;;4992638;28;20443;-74
2023/06/18 07:25:15;;;;;;;9.07;8.17;;;37.90;1.00;;;;;;4992840;28;20560;-73
2023/06/18 07:27:41;;;;;;;8.57;7.97;;;37.60;1.00;;;;;;4992391;28;20173;-75
2023/06/18 07:30:07;;;;;;;9.77;8.97;;;38.00;1.00;;;;;;5002238;28;20204;-73
2023/06/18 07:32:33;;;;;;;8.87;8.27;;;37.70;1.00;;;;;;4990830;28;20222;-74
2023/06/18 07:34:58;;;;;;;8.73;8.03;;;38.80;1.00;;;;;;4992735;28;20411;-75
2023/06/18 07:37:24;;;;;;;9.40;8.43;;;38.90;1.00;;;;;;4992803;28;20173;-74
2023/06/18 07:39:50;;;;;;;9.73;8.97;;;40.20;1.00;;;;;;4992875;28;20276;-75
2023/06/18 07:42:15;;;;;;;9.40;8.70;;;40.90;1.00;;;;;;4992308;28;20291;-75
2023/06/18 07:44:41;;;;;;;10.07;9.10;;;40.20;1.00;;;;;;4994529;28;20244;-74
2023/06/18 07:47:07;;;;;;;9.40;8.70;;;39.80;1.00;;;;;;4996474;28;20235;-75
2023/06/18 07:49:32;;;;;;;8.40;7.90;;;40.20;1.00;;;;;;4996224;28;20207;-75
2023/06/18 07:51:58;;;;;;;10.10;9.30;;;40.50;1.00;;;;;;4995918;28;20200;-73
2023/06/18 07:54:24;;;;;;;9.10;8.37;;;40.40;1.00;;;;;;4995041;28;20416;-73
2023/06/18 07:56:50;;;;;;;8.87;8.13;;;40.80;1.00;;;;;;4996147;28;20200;-74
2023/06/18 07:59:16;;;;;;;9.57;8.50;;;40.90;1.00;;;;;;4996357;28;20181;-75
2023/06/18 08:01:41;;;;;;;8.70;8.10;;;39.40;1.00;;;;;;5010719;28;20455;-74
2023/06/18 08:04:08;;;;;;;10.60;9.80;;;38.20;1.00;;;;;;4996175;28;20222;-75
2023/06/18 08:06:33;;;;;;;9.50;8.70;;;37.20;1.00;;;;;;4996351;28;20176;-76
2023/06/18 08:08:59;;;;;;;9.43;8.53;;;37.40;1.00;;;;;;4995126;28;20458;-71
2023/06/18 08:11:25;;;;;;;9.13;8.53;;;37.20;1.00;;;;;;4997601;28;20208;-71
2023/06/18 08:13:51;;;;;;;8.83;8.23;;;37.10;1.00;;;;;;4996611;28;20188;-74
2023/06/18 08:16:17;;;;;;;9.60;8.80;;;37.90;1.00;;;;;;4995220;28;20432;-75
2023/06/18 08:18:43;;;;;;;10.00;9.00;;;38.40;1.00;;;;;;4998965;28;20213;-74
2023/06/18 08:21:11;;;;;;;9.37;8.47;;;39.00;1.00;;;;;;4994451;28;20812;-75
2023/06/18 08:23:37;;;;;;;9.40;8.70;;;39.60;1.00;;;;;;4996091;28;20588;-75
2023/06/18 08:26:02;;;;;;;9.60;8.80;;;40.80;1.00;;;;;;4996054;28;20412;-74
2023/06/18 08:28:28;;;;;;;8.67;8.07;;;39.90;1.00;;;;;;4999450;28;20196;-74
2023/06/18 08:30:53;;;;;;;8.90;8.30;;;41.10;1.00;;;;;;5013860;28;20192;-74
2023/06/18 08:33:19;;;;;;;10.07;9.37;;;41.30;1.00;;;;;;5015032;28;20207;-75
2023/06/18 08:35:44;;;;;;;9.30;8.57;;;41.50;1.00;;;;;;5014956;28;20172;-75
2023/06/18 08:38:10;;;;;;;9.73;8.83;;;41.90;1.00;;;;;;5013461;28;20586;-74
2023/06/18 08:40:40;;;;;;;10.30;9.27;;;42.30;1.00;;;;;;5013398;28;20211;-74
2023/06/18 08:43:09;;;;;;;9.53;8.83;;;41.70;1.00;;;;;;5014692;28;20175;-75
2023/06/18 08:45:35;;;;;;;8.40;7.80;;;41.00;1.00;;;;;;5014795;28;20426;-75
2023/06/18 08:48:05;;;;;;;8.13;7.57;;;41.70;1.00;;;;;;5014523;28;20415;-75
2023/06/18 08:50:32;;;;;;;9.30;8.70;;;41.50;1.00;;;;;;5013337;28;20218;-75
2023/06/18 08:53:08;;;;;;;8.53;7.77;;;41.00;1.00;;;;;;5014375;28;20395;-74
2023/06/18 08:55:34;;;;;;;9.90;9.00;;;40.40;1.00;;;;;;5014627;28;20817;-75
2023/06/18 08:58:14;;;;;;;8.57;7.97;;;39.80;1.00;;;;;;5014645;28;20414;-74
2023/06/18 09:00:40;;;;;;;8.43;7.63;;;39.70;1.00;;;;;;5015099;28;20423;-75
2023/06/18 09:03:06;;;;;;;9.13;8.43;;;39.80;1.00;;;;;;5015602;28;20433;-75
2023/06/18 09:05:35;;;;;;;8.93;8.33;;;39.70;1.00;;;;;;5014901;28;20176;-75
2023/06/18 09:08:01;;;;;;;10.17;8.07;;;39.00;1.00;;;;;;5013357;28;20214;-75
2023/06/18 09:10:28;;;;;;;8.83;8.23;;;39.60;1.00;;;;;;5014635;28;20466;-74
2023/06/18 09:12:53;;;;;;;8.07;7.47;;;39.30;1.00;;;;;;5013954;28;20212;-74
2023/06/18 09:15:19;;;;;;;8.90;8.20;;;38.60;1.00;;;;;;5014195;28;20947;-75
2023/06/18 09:17:51;;;;;;;9.33;8.57;;;38.10;1.00;;;;;;5014213;28;20180;-75
2023/06/18 09:20:19;;;;;;;8.70;7.90;;;37.40;1.00;;;;;;5013914;28;20176;-75
2023/06/18 09:22:46;;;;;;;9.03;7.47;;;36.30;1.00;;;;;;5013910;28;20417;-75
2023/06/18 09:25:17;;;;;;;9.13;8.33;;;35.00;1.00;;;;;;5012659;28;20446;-75
2023/06/18 09:27:43;;;;;;;8.20;7.50;;;33.70;1.00;;;;;;5014073;28;20407;-74
2023/06/18 09:30:23;;;;;;;8.30;7.50;;;33.10;1.00;;;;;;5013843;28;20462;-75
2023/06/18 09:32:49;;;;;;;8.20;7.60;;;32.30;1.00;;;;;;5013626;28;20782;-74
2023/06/18 09:35:18;;;;;;;9.33;8.53;;;31.70;1.00;;;;;;5012298;28;20557;-74
2023/06/18 09:37:45;;;;;;;8.50;7.80;;;31.60;1.00;;;;;;5012266;28;20450;-74
2023/06/18 09:40:15;;;;;;;7.83;7.23;;;31.30;1.00;;;;;;5013622;28;20771;-74
2023/06/18 09:42:43;;;;;;;8.23;7.53;;;31.20;1.00;;;;;;5013411;28;20426;-75
2023/06/18 09:45:09;;;;;;;8.03;7.00;;;31.10;1.00;;;;;;5014083;28;20406;-74
2023/06/18 09:47:37;;;;;;;7.33;6.70;;;30.90;1.00;;;;;;5013614;28;21031;-74
2023/06/18 09:50:03;;;;;;;8.80;8.20;;;31.00;1.00;;;;;;5013326;28;20474;-74
2023/06/18 09:52:29;;;;;;;8.70;8.10;;;31.20;1.00;;;;;;5013113;28;20818;-74
2023/06/18 09:54:54;;;;;;;8.70;8.00;;;31.20;1.00;;;;;;5013552;28;20847;-74
2023/06/18 09:57:20;;;;;;;8.27;7.57;;;31.10;1.00;;;;;;5013520;28;20234;-74
2023/06/18 09:59:46;;;;;;;8.47;7.77;;;30.80;1.00;;;;;;5013308;28;20219;-75
2023/06/18 10:02:23;;;;;;;9.57;8.67;;;30.80;1.00;;;;;;5013051;28;20200;-74
2023/06/18 10:04:49;;;;;;;8.40;7.80;;;30.80;1.00;;;;;;5013318;28;20190;-74
2023/06/18 10:07:16;;;;;;;9.50;8.57;;;30.60;1.00;;;;;;5012450;28;20407;-76
2023/06/18 10:09:48;;;;;;;8.63;7.90;;;30.50;1.00;;;;;;5012875;28;20823;-74
2023/06/18 10:12:18;;;;;;;8.63;7.93;;;30.60;1.00;;;;;;5011412;28;20449;-74
2023/06/18 10:14:44;;;;;;;8.50;7.80;;;30.60;1.00;;;;;;5013065;28;20481;-74
2023/06/18 10:17:16;;;;;;;7.80;7.20;;;30.70;1.00;;;;;;5013697;28;20411;-74
2023/06/18 10:20:03;;;;;;;8.50;7.73;;;30.80;1.00;;;;;;5013128;28;20423;-74
2023/06/18 10:22:37;;;;;;;7.90;7.30;;;30.90;1.00;;;;;;5013157;28;20524;-74
2023/06/18 10:25:05;;;;;;;8.63;7.93;;;30.80;1.00;;;;;;5011715;28;20423;-74
2023/06/18 10:27:34;;;;;;;8.53;7.80;;;31.10;1.00;;;;;;5013566;28;20415;-74
2023/06/18 10:30:00;;;;;;;8.47;7.77;;;31.10;1.00;;;;;;5013230;28;20508;-74
2023/06/18 10:32:27;;;;;;;8.53;7.93;;;31.10;1.00;;;;;;5011687;28;20514;-74
2023/06/18 10:34:55;;;;;;;7.77;7.27;;;31.20;1.00;;;;;;5012772;28;20198;-74
2023/06/18 10:37:21;;;;;;;7.43;6.73;;;31.20;1.00;;;;;;5012768;28;20425;-74
2023/06/18 10:39:47;;;;;;;8.67;7.87;;;31.00;1.00;;;;;;5012933;28;20426;-74
2023/06/18 10:42:15;;;;;;;10.17;8.27;;;31.00;1.00;;;;;;5011801;28;20462;-75
2023/06/18 10:44:55;;;;;;;8.00;7.40;;;31.00;1.00;;;;;;5011874;28;20435;-75
2023/06/18 10:47:22;;;;;;;8.17;7.47;;;31.10;1.00;;;;;;5013100;28;20450;-74
2023/06/18 10:50:03;;;;;;;7.80;7.30;;;30.90;1.00;;;;;;5013092;28;20906;-73
2023/06/18 10:52:30;;;;;;;8.53;7.70;;;31.10;1.00;;;;;;5013202;28;20973;-74
2023/06/18 10:55:12;;;;;;;7.30;6.73;;;30.90;1.00;;;;;;5013142;28;20419;-74
2023/06/18 10:57:49;;;;;;;8.97;8.10;;;31.00;1.00;;;;;;5012836;28;20399;-74
2023/06/18 11:00:26;;;;;;;8.60;7.97;;;31.10;1.00;;;;;;5012771;28;20441;-74
2023/06/18 11:02:58;;;;;;;8.67;7.97;;;30.90;1.00;;;;;;5012541;28;20421;-74
2023/06/18 11:05:34;;;;;;;8.10;7.30;;;30.90;1.00;;;;;;5012732;28;20415;-74
2023/06/18 11:08:05;;;;;;;7.80;7.30;;;30.90;1.00;;;;;;5012385;28;20415;-74
2023/06/18 11:10:35;;;;;;;8.60;8.00;;;30.50;1.00;;;;;;5012359;28;20454;-74
2023/06/18 11:13:05;;;;;;;8.53;7.83;;;30.40;1.00;;;;;;5012289;28;20430;-74
2023/06/18 11:15:31;;;;;;;7.57;7.07;;;30.20;1.00;;;;;;5012444;28;20415;-74
2023/06/18 11:18:00;;;;;;;8.13;7.53;;;30.30;1.00;;;;;;5012429;28;20427;-74
2023/06/18 11:20:29;;;;;;;7.90;7.30;;;30.50;1.00;;;;;;5011904;28;20457;-74
2023/06/18 11:22:55;;;;;;;8.17;7.57;;;30.40;1.00;;;;;;5011050;28;20423;-74
2023/06/18 11:25:21;;;;;;;8.17;7.33;;;30.50;1.00;;;;;;5010958;28;20423;-74
2023/06/18 11:27:51;;;;;;;8.33;7.63;;;30.50;1.00;;;;;;5012134;28;20406;-74
2023/06/18 11:30:18;;;;;;;7.70;7.20;;;30.70;1.00;;;;;;4992487;28;20461;-74
2023/06/18 11:32:44;;;;;;;7.53;7.03;;;30.60;1.00;;;;;;4992144;28;20417;-74
2023/06/18 11:35:14;;;;;;;8.80;8.10;;;30.70;1.00;;;;;;4991035;28;20415;-74
2023/06/18 11:37:41;;;;;;;7.40;6.90;;;30.70;1.00;;;;;;4990916;28;20431;-74
2023/06/18 11:40:08;;;;;;;8.37;7.77;;;30.80;1.00;;;;;;4992211;28;20420;-73
2023/06/18 11:42:36;;;;;;;8.60;7.90;;;30.50;1.00;;;;;;4991789;28;20526;-74
2023/06/18 11:45:05;;;;;;;8.90;8.10;;;30.40;1.00;;;;;;4992102;28;20423;-74
2023/06/18 11:47:31;;;;;;;9.37;8.50;;;30.50;1.00;;;;;;4992371;28;20826;-70
2023/06/18 11:49:57;;;;;;;8.13;7.53;;;30.70;1.00;;;;;;4999467;28;20834;-74
2023/06/18 11:52:26;;;;;;;9.07;8.07;;;30.90;1.00;;;;;;4991913;28;20967;-74
2023/06/18 11:54:54;;;;;;;8.17;7.53;;;30.80;1.00;;;;;;5015214;28;20450;-70
2023/06/18 11:57:21;;;;;;;9.80;8.80;;;30.80;1.00;;;;;;5010546;28;20415;-70
2023/06/18 11:59:51;;;;;;;8.93;8.33;;;31.00;1.00;;;;;;5010294;28;20415;-68
2023/06/18 12:02:19;;;;;;;8.30;7.60;;;31.10;1.00;;;;;;5011151;28;20418;-68
2023/06/18 12:04:45;;;;;;;8.17;7.43;;;31.20;1.00;;;;;;5011344;28;20920;-68
2023/06/18 12:07:18;;;;;;;8.00;7.40;;;31.10;1.00;;;;;;5011410;28;20423;-69
2023/06/18 12:09:44;;;;;;;7.97;7.27;;;31.10;1.00;;;;;;5011548;28;20458;-68
2023/06/18 12:12:28;;;;;;;8.70;7.90;;;31.10;1.00;;;;;;5011092;28;20471;-68
2023/06/18 12:15:00;;;;;;;8.90;8.20;;;31.00;1.00;;;;;;5011941;28;20762;-68
2023/06/18 12:17:35;;;;;;;7.90;7.20;;;30.80;1.00;;;;;;5009795;28;20446;-68
2023/06/18 12:20:12;;;;;;;8.70;7.90;;;30.60;1.00;;;;;;5011278;28;20408;-68
2023/06/18 12:22:39;;;;;;;8.20;7.70;;;30.80;1.00;;;;;;5009703;28;20426;-68
2023/06/18 12:25:06;;;;;;;8.50;7.70;;;30.90;1.00;;;;;;5010046;28;20781;-68
2023/06/18 12:27:34;;;;;;;9.13;8.37;;;31.10;1.00;;;;;;5011029;28;20457;-68
2023/06/18 12:30:05;;;;;;;7.13;6.63;;;31.30;1.00;;;;;;5011007;28;20657;-68
2023/06/18 12:32:31;;;;;;;8.33;7.70;;;31.30;1.00;;;;;;5013499;28;20495;-68
2023/06/18 12:34:57;;;;;;;7.30;6.80;;;31.50;1.00;;;;;;5014627;28;20513;-68
2023/06/18 12:37:32;;;;;;;8.30;7.70;;;31.70;1.00;;;;;;5013114;28;20486;-68
2023/06/18 12:40:23;;;;;;;8.20;7.60;;;31.80;1.00;;;;;;5014600;28;20229;-69
2023/06/18 12:42:50;;;;;;;8.80;8.00;;;31.70;1.00;;;;;;5011974;28;20434;-68
2023/06/18 12:45:23;;;;;;;8.17;7.57;;;31.50;1.00;;;;;;4994780;28;20968;-68
2023/06/18 12:47:51;;;;;;;9.23;8.53;;;31.30;1.00;;;;;;5009524;28;21009;-68
2023/06/18 12:50:25;;;;;;;8.97;8.17;;;31.30;1.00;;;;;;5002243;28;20470;-68
2023/06/18 12:52:52;;;;;;;9.00;8.40;;;31.30;1.00;;;;;;4994205;28;20728;-68
2023/06/18 12:55:18;;;;;;;8.80;8.10;;;31.40;1.00;;;;;;4994582;28;20507;-68